Chicago Lawn, Illinois
Current Conditions -  °F | °C
As of 9:53 PM on Tuesday 21 Oct 2014 (Local Time) from KMDW Reporting Station
Overcast Overcast  
Wind Chill: 51°   Ceiling: 3100
Heat Index: 51°   Visibility: 10mi
Dew Point: 38°   Wind: 10mph
Humidity: 61%   Direction: 20°NNE
Pressure: 30.26"   Gusts: NA
Location:  41.7761°N, 87.7143°W
Report Text: KMDW 220253Z 02009KT 10SM OVC031 11/03 A3026 RMK AO2 SLP248 T01060033 51013
Loading
Personal Weather Stations






























Interactive Weather Map
Tropical Storm Tracking
New forecast layout! Learn more

10-Day Weather Forecast

Advertisements
Track Severe Weather on mobile